sensor_id;sensor_type;location;lat;lon;timestamp;P1;durP1;ratioP1;P2;durP2;ratioP2
8435;SDS011;4255;48.730;9.156;2022-07-23T00:01:32;8.53;;;7.23;;
8435;SDS011;4255;48.730;9.156;2022-07-23T00:03:58;8.53;;;7.20;;
8435;SDS011;4255;48.730;9.156;2022-07-23T00:06:24;7.17;;;6.47;;
8435;SDS011;4255;48.730;9.156;2022-07-23T00:08:50;6.67;;;6.00;;
8435;SDS011;4255;48.730;9.156;2022-07-23T00:11:16;6.70;;;6.10;;
8435;SDS011;4255;48.730;9.156;2022-07-23T00:13:42;7.30;;;6.30;;
8435;SDS011;4255;48.730;9.156;2022-07-23T00:16:08;6.80;;;6.13;;
8435;SDS011;4255;48.730;9.156;2022-07-23T00:18:33;6.13;;;5.73;;
8435;SDS011;4255;48.730;9.156;2022-07-23T00:20:59;5.63;;;5.10;;
8435;SDS011;4255;48.730;9.156;2022-07-23T00:23:25;6.37;;;5.77;;
8435;SDS011;4255;48.730;9.156;2022-07-23T00:25:51;7.07;;;6.37;;
8435;SDS011;4255;48.730;9.156;2022-07-23T00:28:17;6.90;;;6.17;;
8435;SDS011;4255;48.730;9.156;2022-07-23T00:30:43;5.80;;;5.30;;
8435;SDS011;4255;48.730;9.156;2022-07-23T00:33:09;5.20;;;4.80;;
8435;SDS011;4255;48.730;9.156;2022-07-23T00:35:36;8.00;;;6.50;;
8435;SDS011;4255;48.730;9.156;2022-07-23T00:38:05;7.83;;;7.03;;
8435;SDS011;4255;48.730;9.156;2022-07-23T00:40:32;7.07;;;6.07;;
8435;SDS011;4255;48.730;9.156;2022-07-23T00:42:59;6.50;;;6.00;;
8435;SDS011;4255;48.730;9.156;2022-07-23T00:45:25;5.93;;;5.53;;
8435;SDS011;4255;48.730;9.156;2022-07-23T00:47:51;6.20;;;5.60;;
8435;SDS011;4255;48.730;9.156;2022-07-23T00:50:17;6.90;;;6.30;;
8435;SDS011;4255;48.730;9.156;2022-07-23T00:52:42;6.33;;;5.73;;
8435;SDS011;4255;48.730;9.156;2022-07-23T00:55:09;6.20;;;5.70;;
8435;SDS011;4255;48.730;9.156;2022-07-23T00:57:35;6.87;;;6.20;;
8435;SDS011;4255;48.730;9.156;2022-07-23T01:00:03;6.10;;;5.57;;
8435;SDS011;4255;48.730;9.156;2022-07-23T01:02:31;7.07;;;5.83;;
8435;SDS011;4255;48.730;9.156;2022-07-23T01:04:58;5.97;;;5.53;;
8435;SDS011;4255;48.730;9.156;2022-07-23T01:07:23;7.60;;;6.87;;
8435;SDS011;4255;48.730;9.156;2022-07-23T01:09:50;5.60;;;5.20;;
8435;SDS011;4255;48.730;9.156;2022-07-23T01:12:16;6.00;;;5.50;;
8435;SDS011;4255;48.730;9.156;2022-07-23T01:14:42;6.90;;;5.53;;
8435;SDS011;4255;48.730;9.156;2022-07-23T01:17:08;5.50;;;5.10;;
8435;SDS011;4255;48.730;9.156;2022-07-23T01:19:33;6.07;;;5.57;;
8435;SDS011;4255;48.730;9.156;2022-07-23T01:22:00;6.97;;;5.70;;
8435;SDS011;4255;48.730;9.156;2022-07-23T01:24:28;5.50;;;5.00;;
8435;SDS011;4255;48.730;9.156;2022-07-23T01:26:54;5.37;;;4.53;;
8435;SDS011;4255;48.730;9.156;2022-07-23T01:29:20;5.77;;;5.27;;
8435;SDS011;4255;48.730;9.156;2022-07-23T01:31:46;5.60;;;5.20;;
8435;SDS011;4255;48.730;9.156;2022-07-23T01:34:12;5.70;;;5.20;;
8435;SDS011;4255;48.730;9.156;2022-07-23T01:36:38;6.00;;;5.50;;
8435;SDS011;4255;48.730;9.156;2022-07-23T01:39:05;5.70;;;5.20;;
8435;SDS011;4255;48.730;9.156;2022-07-23T01:41:32;5.40;;;4.90;;
8435;SDS011;4255;48.730;9.156;2022-07-23T01:43:58;5.67;;;5.17;;
8435;SDS011;4255;48.730;9.156;2022-07-23T01:46:24;5.70;;;5.10;;
8435;SDS011;4255;48.730;9.156;2022-07-23T01:48:49;7.90;;;6.80;;
8435;SDS011;4255;48.730;9.156;2022-07-23T01:51:15;6.50;;;5.90;;
8435;SDS011;4255;48.730;9.156;2022-07-23T01:53:41;6.43;;;5.50;;
8435;SDS011;4255;48.730;9.156;2022-07-23T01:56:06;5.70;;;5.30;;
8435;SDS011;4255;48.730;9.156;2022-07-23T01:58:32;6.10;;;5.50;;
8435;SDS011;4255;48.730;9.156;2022-07-23T02:00:58;5.77;;;5.17;;
8435;SDS011;4255;48.730;9.156;2022-07-23T02:03:24;6.20;;;5.80;;
8435;SDS011;4255;48.730;9.156;2022-07-23T02:05:50;6.13;;;5.53;;
8435;SDS011;4255;48.730;9.156;2022-07-23T02:08:16;6.37;;;5.77;;
8435;SDS011;4255;48.730;9.156;2022-07-23T02:10:42;6.10;;;5.60;;
8435;SDS011;4255;48.730;9.156;2022-07-23T02:13:09;6.73;;;6.13;;
8435;SDS011;4255;48.730;9.156;2022-07-23T02:15:35;6.63;;;5.40;;
8435;SDS011;4255;48.730;9.156;2022-07-23T02:18:00;8.03;;;5.20;;
8435;SDS011;4255;48.730;9.156;2022-07-23T02:20:26;5.83;;;5.33;;
8435;SDS011;4255;48.730;9.156;2022-07-23T02:22:52;6.70;;;5.37;;
8435;SDS011;4255;48.730;9.156;2022-07-23T02:25:17;6.27;;;5.70;;
8435;SDS011;4255;48.730;9.156;2022-07-23T02:27:43;6.20;;;5.60;;
8435;SDS011;4255;48.730;9.156;2022-07-23T02:30:09;6.10;;;5.50;;
8435;SDS011;4255;48.730;9.156;2022-07-23T02:32:35;6.00;;;5.53;;
8435;SDS011;4255;48.730;9.156;2022-07-23T02:35:02;6.23;;;5.00;;
8435;SDS011;4255;48.730;9.156;2022-07-23T02:37:28;6.60;;;5.90;;
8435;SDS011;4255;48.730;9.156;2022-07-23T02:39:54;7.07;;;6.10;;
8435;SDS011;4255;48.730;9.156;2022-07-23T02:42:20;6.87;;;5.57;;
8435;SDS011;4255;48.730;9.156;2022-07-23T02:44:45;5.73;;;5.23;;
8435;SDS011;4255;48.730;9.156;2022-07-23T02:47:11;6.10;;;5.60;;
8435;SDS011;4255;48.730;9.156;2022-07-23T02:49:37;5.97;;;5.47;;
8435;SDS011;4255;48.730;9.156;2022-07-23T02:52:03;6.37;;;5.60;;
8435;SDS011;4255;48.730;9.156;2022-07-23T02:54:28;7.23;;;6.60;;
8435;SDS011;4255;48.730;9.156;2022-07-23T02:56:54;6.60;;;5.90;;
8435;SDS011;4255;48.730;9.156;2022-07-23T02:59:20;6.33;;;5.83;;
8435;SDS011;4255;48.730;9.156;2022-07-23T03:01:45;6.90;;;6.17;;
8435;SDS011;4255;48.730;9.156;2022-07-23T03:04:11;6.60;;;6.00;;
8435;SDS011;4255;48.730;9.156;2022-07-23T03:06:37;6.60;;;6.00;;
8435;SDS011;4255;48.730;9.156;2022-07-23T03:09:03;6.07;;;5.57;;
8435;SDS011;4255;48.730;9.156;2022-07-23T03:11:30;6.10;;;5.70;;
8435;SDS011;4255;48.730;9.156;2022-07-23T03:13:55;6.93;;;6.33;;
8435;SDS011;4255;48.730;9.156;2022-07-23T03:16:21;9.40;;;6.27;;
8435;SDS011;4255;48.730;9.156;2022-07-23T03:18:47;7.30;;;6.70;;
8435;SDS011;4255;48.730;9.156;2022-07-23T03:21:13;7.40;;;6.63;;
8435;SDS011;4255;48.730;9.156;2022-07-23T03:23:38;7.00;;;6.30;;
8435;SDS011;4255;48.730;9.156;2022-07-23T03:26:04;7.50;;;6.90;;
8435;SDS011;4255;48.730;9.156;2022-07-23T03:28:30;7.73;;;7.00;;
8435;SDS011;4255;48.730;9.156;2022-07-23T03:30:56;7.07;;;6.47;;
8435;SDS011;4255;48.730;9.156;2022-07-23T03:33:21;6.97;;;6.40;;
8435;SDS011;4255;48.730;9.156;2022-07-23T03:35:47;7.20;;;6.50;;
8435;SDS011;4255;48.730;9.156;2022-07-23T03:38:13;7.00;;;6.30;;
8435;SDS011;4255;48.730;9.156;2022-07-23T03:40:39;6.10;;;5.60;;
8435;SDS011;4255;48.730;9.156;2022-07-23T03:43:05;8.43;;;6.50;;
8435;SDS011;4255;48.730;9.156;2022-07-23T03:45:31;8.07;;;5.73;;
8435;SDS011;4255;48.730;9.156;2022-07-23T03:47:57;6.70;;;6.10;;
8435;SDS011;4255;48.730;9.156;2022-07-23T03:50:23;8.70;;;6.90;;
8435;SDS011;4255;48.730;9.156;2022-07-23T03:52:48;6.67;;;6.13;;
8435;SDS011;4255;48.730;9.156;2022-07-23T03:55:14;8.67;;;6.50;;
8435;SDS011;4255;48.730;9.156;2022-07-23T03:57:40;8.57;;;7.63;;
8435;SDS011;4255;48.730;9.156;2022-07-23T04:00:06;7.23;;;6.63;;
8435;SDS011;4255;48.730;9.156;2022-07-23T04:02:38;6.33;;;5.83;;
8435;SDS011;4255;48.730;9.156;2022-07-23T04:05:03;8.33;;;7.00;;
8435;SDS011;4255;48.730;9.156;2022-07-23T04:07:30;7.73;;;7.03;;
8435;SDS011;4255;48.730;9.156;2022-07-23T04:09:55;7.47;;;6.80;;
8435;SDS011;4255;48.730;9.156;2022-07-23T04:12:21;7.60;;;6.60;;
8435;SDS011;4255;48.730;9.156;2022-07-23T04:14:47;7.30;;;6.60;;
8435;SDS011;4255;48.730;9.156;2022-07-23T04:17:13;7.50;;;6.80;;
8435;SDS011;4255;48.730;9.156;2022-07-23T04:19:38;6.50;;;6.00;;
8435;SDS011;4255;48.730;9.156;2022-07-23T04:22:08;8.00;;;7.23;;
8435;SDS011;4255;48.730;9.156;2022-07-23T04:24:35;7.40;;;6.70;;
8435;SDS011;4255;48.730;9.156;2022-07-23T04:27:01;7.33;;;6.63;;
8435;SDS011;4255;48.730;9.156;2022-07-23T04:29:26;8.33;;;6.50;;
8435;SDS011;4255;48.730;9.156;2022-07-23T04:31:52;9.60;;;7.23;;
8435;SDS011;4255;48.730;9.156;2022-07-23T04:34:18;6.40;;;5.80;;
8435;SDS011;4255;48.730;9.156;2022-07-23T04:36:44;7.43;;;6.73;;
8435;SDS011;4255;48.730;9.156;2022-07-23T04:39:09;11.90;;;6.33;;
8435;SDS011;4255;48.730;9.156;2022-07-23T04:41:35;7.37;;;6.70;;
8435;SDS011;4255;48.730;9.156;2022-07-23T04:44:01;7.83;;;7.03;;
8435;SDS011;4255;48.730;9.156;2022-07-23T04:46:27;10.43;;;6.50;;
8435;SDS011;4255;48.730;9.156;2022-07-23T04:48:53;6.53;;;5.93;;
8435;SDS011;4255;48.730;9.156;2022-07-23T04:51:19;7.00;;;6.30;;
8435;SDS011;4255;48.730;9.156;2022-07-23T04:53:44;7.23;;;6.40;;
8435;SDS011;4255;48.730;9.156;2022-07-23T04:56:10;7.07;;;6.40;;
8435;SDS011;4255;48.730;9.156;2022-07-23T04:58:36;6.50;;;5.70;;
8435;SDS011;4255;48.730;9.156;2022-07-23T05:01:01;7.63;;;6.93;;
8435;SDS011;4255;48.730;9.156;2022-07-23T05:03:27;7.50;;;6.90;;
8435;SDS011;4255;48.730;9.156;2022-07-23T05:05:53;8.47;;;7.60;;
8435;SDS011;4255;48.730;9.156;2022-07-23T05:08:19;8.57;;;6.13;;
8435;SDS011;4255;48.730;9.156;2022-07-23T05:10:44;7.90;;;7.20;;
8435;SDS011;4255;48.730;9.156;2022-07-23T05:13:10;10.83;;;6.97;;
8435;SDS011;4255;48.730;9.156;2022-07-23T05:15:36;6.50;;;5.90;;
8435;SDS011;4255;48.730;9.156;2022-07-23T05:18:01;7.40;;;6.70;;
8435;SDS011;4255;48.730;9.156;2022-07-23T05:20:27;8.57;;;6.47;;
8435;SDS011;4255;48.730;9.156;2022-07-23T05:22:53;11.03;;;5.83;;
8435;SDS011;4255;48.730;9.156;2022-07-23T05:25:18;7.37;;;6.33;;
8435;SDS011;4255;48.730;9.156;2022-07-23T05:27:44;9.50;;;7.43;;
8435;SDS011;4255;48.730;9.156;2022-07-23T05:30:10;8.17;;;6.60;;
8435;SDS011;4255;48.730;9.156;2022-07-23T05:32:36;8.13;;;7.43;;
8435;SDS011;4255;48.730;9.156;2022-07-23T05:35:02;7.50;;;6.80;;
8435;SDS011;4255;48.730;9.156;2022-07-23T05:37:32;7.90;;;7.20;;
8435;SDS011;4255;48.730;9.156;2022-07-23T05:40:04;7.40;;;6.37;;
8435;SDS011;4255;48.730;9.156;2022-07-23T05:42:32;9.23;;;8.27;;
8435;SDS011;4255;48.730;9.156;2022-07-23T05:44:58;7.77;;;7.17;;
8435;SDS011;4255;48.730;9.156;2022-07-23T05:47:24;8.97;;;8.07;;
8435;SDS011;4255;48.730;9.156;2022-07-23T05:49:50;8.07;;;7.27;;
8435;SDS011;4255;48.730;9.156;2022-07-23T05:52:15;7.70;;;7.00;;
8435;SDS011;4255;48.730;9.156;2022-07-23T05:54:41;8.07;;;7.37;;
8435;SDS011;4255;48.730;9.156;2022-07-23T05:57:07;7.73;;;7.03;;
8435;SDS011;4255;48.730;9.156;2022-07-23T05:59:32;8.10;;;7.40;;
8435;SDS011;4255;48.730;9.156;2022-07-23T06:01:58;8.47;;;7.67;;
8435;SDS011;4255;48.730;9.156;2022-07-23T06:04:24;7.80;;;7.10;;
8435;SDS011;4255;48.730;9.156;2022-07-23T06:06:49;7.50;;;6.87;;
8435;SDS011;4255;48.730;9.156;2022-07-23T06:09:15;8.33;;;7.53;;
8435;SDS011;4255;48.730;9.156;2022-07-23T06:11:40;9.97;;;7.43;;
8435;SDS011;4255;48.730;9.156;2022-07-23T06:14:06;7.87;;;7.13;;
8435;SDS011;4255;48.730;9.156;2022-07-23T06:16:32;7.37;;;6.70;;
8435;SDS011;4255;48.730;9.156;2022-07-23T06:18:57;11.00;;;7.27;;
8435;SDS011;4255;48.730;9.156;2022-07-23T06:21:23;11.73;;;8.00;;
8435;SDS011;4255;48.730;9.156;2022-07-23T06:23:49;10.33;;;8.13;;
8435;SDS011;4255;48.730;9.156;2022-07-23T06:26:14;8.67;;;7.87;;
8435;SDS011;4255;48.730;9.156;2022-07-23T06:28:40;8.90;;;7.97;;
8435;SDS011;4255;48.730;9.156;2022-07-23T06:31:05;7.47;;;6.77;;
8435;SDS011;4255;48.730;9.156;2022-07-23T06:33:31;8.00;;;7.13;;
8435;SDS011;4255;48.730;9.156;2022-07-23T06:35:57;8.07;;;7.00;;
8435;SDS011;4255;48.730;9.156;2022-07-23T06:38:22;10.17;;;7.40;;
8435;SDS011;4255;48.730;9.156;2022-07-23T06:40:48;8.17;;;7.37;;
8435;SDS011;4255;48.730;9.156;2022-07-23T06:43:14;8.37;;;7.30;;
8435;SDS011;4255;48.730;9.156;2022-07-23T06:45:39;8.27;;;7.43;;
8435;SDS011;4255;48.730;9.156;2022-07-23T06:48:05;8.07;;;6.70;;
8435;SDS011;4255;48.730;9.156;2022-07-23T06:50:31;8.17;;;7.40;;
8435;SDS011;4255;48.730;9.156;2022-07-23T06:52:57;8.23;;;7.43;;
8435;SDS011;4255;48.730;9.156;2022-07-23T06:55:22;8.00;;;7.30;;
8435;SDS011;4255;48.730;9.156;2022-07-23T06:57:48;7.13;;;6.53;;
8435;SDS011;4255;48.730;9.156;2022-07-23T07:00:14;7.90;;;7.00;;
8435;SDS011;4255;48.730;9.156;2022-07-23T07:02:39;10.27;;;7.53;;
8435;SDS011;4255;48.730;9.156;2022-07-23T07:05:05;8.07;;;7.30;;
8435;SDS011;4255;48.730;9.156;2022-07-23T07:07:31;9.23;;;7.67;;
8435;SDS011;4255;48.730;9.156;2022-07-23T07:09:57;8.60;;;7.80;;
8435;SDS011;4255;48.730;9.156;2022-07-23T07:12:23;8.40;;;7.47;;
8435;SDS011;4255;48.730;9.156;2022-07-23T07:14:48;8.37;;;7.53;;
8435;SDS011;4255;48.730;9.156;2022-07-23T07:17:14;7.80;;;7.20;;
8435;SDS011;4255;48.730;9.156;2022-07-23T07:19:40;8.47;;;7.63;;
8435;SDS011;4255;48.730;9.156;2022-07-23T07:22:06;8.37;;;7.67;;
8435;SDS011;4255;48.730;9.156;2022-07-23T07:24:31;9.93;;;7.70;;
8435;SDS011;4255;48.730;9.156;2022-07-23T07:26:57;7.57;;;6.87;;
8435;SDS011;4255;48.730;9.156;2022-07-23T07:29:23;11.60;;;9.10;;
8435;SDS011;4255;48.730;9.156;2022-07-23T07:31:49;7.57;;;6.77;;
8435;SDS011;4255;48.730;9.156;2022-07-23T07:34:14;8.73;;;7.37;;
8435;SDS011;4255;48.730;9.156;2022-07-23T07:36:40;7.33;;;6.63;;
8435;SDS011;4255;48.730;9.156;2022-07-23T07:39:06;7.83;;;6.97;;
8435;SDS011;4255;48.730;9.156;2022-07-23T07:41:31;7.90;;;7.20;;
8435;SDS011;4255;48.730;9.156;2022-07-23T07:43:57;6.63;;;6.13;;
8435;SDS011;4255;48.730;9.156;2022-07-23T07:46:23;14.73;;;8.33;;
8435;SDS011;4255;48.730;9.156;2022-07-23T07:48:49;7.83;;;7.10;;
8435;SDS011;4255;48.730;9.156;2022-07-23T07:51:15;9.50;;;7.60;;
8435;SDS011;4255;48.730;9.156;2022-07-23T07:53:41;8.40;;;7.60;;
8435;SDS011;4255;48.730;9.156;2022-07-23T07:56:07;7.70;;;7.00;;
8435;SDS011;4255;48.730;9.156;2022-07-23T07:58:32;9.13;;;8.23;;
8435;SDS011;4255;48.730;9.156;2022-07-23T08:00:58;11.33;;;8.07;;
8435;SDS011;4255;48.730;9.156;2022-07-23T08:03:25;9.00;;;7.87;;
8435;SDS011;4255;48.730;9.156;2022-07-23T08:05:51;9.37;;;8.47;;
8435;SDS011;4255;48.730;9.156;2022-07-23T08:08:17;8.10;;;7.40;;
8435;SDS011;4255;48.730;9.156;2022-07-23T08:10:42;9.63;;;7.90;;
8435;SDS011;4255;48.730;9.156;2022-07-23T08:13:11;7.63;;;6.93;;
8435;SDS011;4255;48.730;9.156;2022-07-23T08:15:39;10.07;;;8.43;;
8435;SDS011;4255;48.730;9.156;2022-07-23T08:18:05;7.00;;;6.40;;
8435;SDS011;4255;48.730;9.156;2022-07-23T08:20:31;6.77;;;6.27;;
8435;SDS011;4255;48.730;9.156;2022-07-23T08:23:02;7.87;;;7.27;;
8435;SDS011;4255;48.730;9.156;2022-07-23T08:27:57;7.87;;;7.20;;
8435;SDS011;4255;48.730;9.156;2022-07-23T08:30:24;7.40;;;6.70;;
8435;SDS011;4255;48.730;9.156;2022-07-23T08:35:29;7.97;;;7.27;;
8435;SDS011;4255;48.730;9.156;2022-07-23T08:38:01;8.00;;;7.30;;
8435;SDS011;4255;48.730;9.156;2022-07-23T08:40:29;7.57;;;6.87;;
8435;SDS011;4255;48.730;9.156;2022-07-23T08:42:57;8.00;;;7.20;;
8435;SDS011;4255;48.730;9.156;2022-07-23T08:45:23;7.43;;;6.83;;
8435;SDS011;4255;48.730;9.156;2022-07-23T08:47:54;7.83;;;7.13;;
8435;SDS011;4255;48.730;9.156;2022-07-23T08:50:21;8.70;;;7.80;;
8435;SDS011;4255;48.730;9.156;2022-07-23T08:52:49;7.83;;;7.07;;
8435;SDS011;4255;48.730;9.156;2022-07-23T08:55:19;8.10;;;7.40;;
8435;SDS011;4255;48.730;9.156;2022-07-23T08:57:51;7.23;;;6.67;;
8435;SDS011;4255;48.730;9.156;2022-07-23T09:00:20;7.17;;;6.63;;
8435;SDS011;4255;48.730;9.156;2022-07-23T09:02:47;6.63;;;6.13;;
8435;SDS011;4255;48.730;9.156;2022-07-23T09:05:13;7.13;;;6.53;;
8435;SDS011;4255;48.730;9.156;2022-07-23T09:11:09;9.80;;;6.77;;
8435;SDS011;4255;48.730;9.156;2022-07-23T09:16:14;7.43;;;6.77;;
8435;SDS011;4255;48.730;9.156;2022-07-23T09:21:17;6.80;;;6.20;;
8435;SDS011;4255;48.730;9.156;2022-07-23T09:26:26;7.17;;;6.57;;
8435;SDS011;4255;48.730;9.156;2022-07-23T09:31:22;7.23;;;6.50;;
8435;SDS011;4255;48.730;9.156;2022-07-23T09:33:49;8.30;;;7.50;;
8435;SDS011;4255;48.730;9.156;2022-07-23T09:36:15;8.20;;;6.63;;
8435;SDS011;4255;48.730;9.156;2022-07-23T09:38:51;8.00;;;6.40;;
8435;SDS011;4255;48.730;9.156;2022-07-23T09:41:17;7.40;;;6.80;;
8435;SDS011;4255;48.730;9.156;2022-07-23T09:43:43;8.37;;;7.57;;
8435;SDS011;4255;48.730;9.156;2022-07-23T09:46:22;7.90;;;7.30;;
8435;SDS011;4255;48.730;9.156;2022-07-23T09:48:52;8.20;;;7.40;;
8435;SDS011;4255;48.730;9.156;2022-07-23T09:51:19;7.60;;;7.00;;
8435;SDS011;4255;48.730;9.156;2022-07-23T09:54:01;8.70;;;7.93;;
8435;SDS011;4255;48.730;9.156;2022-07-23T09:56:27;7.57;;;6.87;;
8435;SDS011;4255;48.730;9.156;2022-07-23T09:58:53;7.37;;;6.70;;
8435;SDS011;4255;48.730;9.156;2022-07-23T10:01:39;8.37;;;7.67;;
8435;SDS011;4255;48.730;9.156;2022-07-23T10:04:05;7.03;;;6.50;;
8435;SDS011;4255;48.730;9.156;2022-07-23T10:06:32;7.80;;;6.90;;
8435;SDS011;4255;48.730;9.156;2022-07-23T10:08:59;8.00;;;7.30;;
8435;SDS011;4255;48.730;9.156;2022-07-23T10:11:26;7.27;;;6.67;;
8435;SDS011;4255;48.730;9.156;2022-07-23T10:13:53;8.03;;;7.23;;
8435;SDS011;4255;48.730;9.156;2022-07-23T10:16:20;6.90;;;6.40;;
8435;SDS011;4255;48.730;9.156;2022-07-23T10:18:46;8.30;;;7.50;;
8435;SDS011;4255;48.730;9.156;2022-07-23T10:21:15;8.03;;;7.33;;
8435;SDS011;4255;48.730;9.156;2022-07-23T10:27:02;7.30;;;6.70;;
8435;SDS011;4255;48.730;9.156;2022-07-23T10:29:36;7.97;;;7.17;;
8435;SDS011;4255;48.730;9.156;2022-07-23T10:37:47;7.10;;;6.57;;
8435;SDS011;4255;48.730;9.156;2022-07-23T10:42:43;8.13;;;7.40;;
8435;SDS011;4255;48.730;9.156;2022-07-23T10:45:26;7.23;;;6.53;;
8435;SDS011;4255;48.730;9.156;2022-07-23T10:48:11;7.70;;;7.10;;
8435;SDS011;4255;48.730;9.156;2022-07-23T10:50:43;7.70;;;7.00;;
8435;SDS011;4255;48.730;9.156;2022-07-23T10:53:29;7.50;;;6.90;;
8435;SDS011;4255;48.730;9.156;2022-07-23T10:56:14;7.63;;;6.93;;
8435;SDS011;4255;48.730;9.156;2022-07-23T10:58:47;7.43;;;6.80;;
8435;SDS011;4255;48.730;9.156;2022-07-23T11:01:33;6.80;;;6.20;;
8435;SDS011;4255;48.730;9.156;2022-07-23T11:04:01;7.47;;;6.87;;
8435;SDS011;4255;48.730;9.156;2022-07-23T11:20:17;7.17;;;6.57;;
8435;SDS011;4255;48.730;9.156;2022-07-23T11:25:29;6.90;;;6.40;;
8435;SDS011;4255;48.730;9.156;2022-07-23T11:28:17;8.00;;;7.40;;
8435;SDS011;4255;48.730;9.156;2022-07-23T11:30:46;6.83;;;6.23;;
8435;SDS011;4255;48.730;9.156;2022-07-23T11:35:42;7.30;;;6.70;;
8435;SDS011;4255;48.730;9.156;2022-07-23T11:38:16;7.40;;;6.80;;
8435;SDS011;4255;48.730;9.156;2022-07-23T11:40:44;7.90;;;7.10;;
8435;SDS011;4255;48.730;9.156;2022-07-23T11:43:12;7.47;;;6.87;;
8435;SDS011;4255;48.730;9.156;2022-07-23T11:45:46;6.70;;;6.20;;
8435;SDS011;4255;48.730;9.156;2022-07-23T11:48:20;7.00;;;6.50;;
8435;SDS011;4255;48.730;9.156;2022-07-23T11:50:52;7.80;;;7.20;;
8435;SDS011;4255;48.730;9.156;2022-07-23T11:53:22;7.10;;;6.50;;
8435;SDS011;4255;48.730;9.156;2022-07-23T11:55:48;7.50;;;6.90;;
8435;SDS011;4255;48.730;9.156;2022-07-23T11:58:14;6.97;;;6.47;;
8435;SDS011;4255;48.730;9.156;2022-07-23T12:00:40;8.07;;;6.97;;
8435;SDS011;4255;48.730;9.156;2022-07-23T12:03:06;8.57;;;7.87;;
8435;SDS011;4255;48.730;9.156;2022-07-23T12:05:33;7.20;;;6.60;;
8435;SDS011;4255;48.730;9.156;2022-07-23T12:08:02;7.20;;;6.60;;
8435;SDS011;4255;48.730;9.156;2022-07-23T12:10:34;6.73;;;6.23;;
8435;SDS011;4255;48.730;9.156;2022-07-23T12:13:05;7.10;;;6.50;;
8435;SDS011;4255;48.730;9.156;2022-07-23T12:15:36;8.23;;;7.30;;
8435;SDS011;4255;48.730;9.156;2022-07-23T12:18:11;7.63;;;7.03;;
8435;SDS011;4255;48.730;9.156;2022-07-23T12:20:42;8.00;;;7.40;;
8435;SDS011;4255;48.730;9.156;2022-07-23T12:23:11;8.10;;;7.30;;
8435;SDS011;4255;48.730;9.156;2022-07-23T12:25:40;7.20;;;6.60;;
8435;SDS011;4255;48.730;9.156;2022-07-23T12:28:12;8.13;;;7.43;;
8435;SDS011;4255;48.730;9.156;2022-07-23T12:30:45;7.73;;;7.03;;
8435;SDS011;4255;48.730;9.156;2022-07-23T12:33:12;8.70;;;7.90;;
8435;SDS011;4255;48.730;9.156;2022-07-23T12:35:44;8.20;;;7.40;;
8435;SDS011;4255;48.730;9.156;2022-07-23T12:38:11;9.23;;;8.10;;
8435;SDS011;4255;48.730;9.156;2022-07-23T12:40:50;8.57;;;7.80;;
8435;SDS011;4255;48.730;9.156;2022-07-23T12:48:27;7.40;;;6.90;;
8435;SDS011;4255;48.730;9.156;2022-07-23T13:01:21;7.77;;;7.10;;
8435;SDS011;4255;48.730;9.156;2022-07-23T13:04:04;8.47;;;7.77;;
8435;SDS011;4255;48.730;9.156;2022-07-23T13:06:31;8.13;;;7.50;;
8435;SDS011;4255;48.730;9.156;2022-07-23T13:08:59;11.13;;;7.37;;
8435;SDS011;4255;48.730;9.156;2022-07-23T13:11:26;7.53;;;6.93;;
8435;SDS011;4255;48.730;9.156;2022-07-23T13:13:51;7.63;;;7.03;;
8435;SDS011;4255;48.730;9.156;2022-07-23T13:16:17;8.10;;;7.30;;
8435;SDS011;4255;48.730;9.156;2022-07-23T13:18:43;9.10;;;8.30;;
8435;SDS011;4255;48.730;9.156;2022-07-23T13:21:09;9.17;;;8.47;;
8435;SDS011;4255;48.730;9.156;2022-07-23T13:23:34;8.57;;;7.87;;
8435;SDS011;4255;48.730;9.156;2022-07-23T13:26:01;9.00;;;8.30;;
8435;SDS011;4255;48.730;9.156;2022-07-23T13:28:27;8.17;;;7.47;;
8435;SDS011;4255;48.730;9.156;2022-07-23T13:30:53;8.60;;;7.80;;
8435;SDS011;4255;48.730;9.156;2022-07-23T13:33:19;10.27;;;7.63;;
8435;SDS011;4255;48.730;9.156;2022-07-23T13:35:47;9.00;;;8.10;;
8435;SDS011;4255;48.730;9.156;2022-07-23T13:38:13;9.57;;;8.80;;
8435;SDS011;4255;48.730;9.156;2022-07-23T13:40:39;8.80;;;8.00;;
8435;SDS011;4255;48.730;9.156;2022-07-23T13:43:11;8.93;;;8.13;;
8435;SDS011;4255;48.730;9.156;2022-07-23T13:45:39;8.23;;;7.53;;
8435;SDS011;4255;48.730;9.156;2022-07-23T13:48:05;10.97;;;8.30;;
8435;SDS011;4255;48.730;9.156;2022-07-23T13:50:32;8.67;;;7.87;;
8435;SDS011;4255;48.730;9.156;2022-07-23T13:53:02;8.60;;;7.90;;
8435;SDS011;4255;48.730;9.156;2022-07-23T13:55:36;8.10;;;7.40;;
8435;SDS011;4255;48.730;9.156;2022-07-23T13:58:03;7.87;;;7.17;;
8435;SDS011;4255;48.730;9.156;2022-07-23T14:00:29;8.80;;;7.90;;
8435;SDS011;4255;48.730;9.156;2022-07-23T14:02:56;8.23;;;7.53;;
8435;SDS011;4255;48.730;9.156;2022-07-23T14:05:22;8.17;;;7.47;;
8435;SDS011;4255;48.730;9.156;2022-07-23T14:07:48;8.60;;;7.90;;
8435;SDS011;4255;48.730;9.156;2022-07-23T14:10:16;7.30;;;6.80;;
8435;SDS011;4255;48.730;9.156;2022-07-23T14:12:43;8.40;;;7.60;;
8435;SDS011;4255;48.730;9.156;2022-07-23T14:15:09;8.83;;;7.93;;
8435;SDS011;4255;48.730;9.156;2022-07-23T14:17:36;8.90;;;8.00;;
8435;SDS011;4255;48.730;9.156;2022-07-23T14:20:03;8.77;;;7.97;;
8435;SDS011;4255;48.730;9.156;2022-07-23T14:22:30;9.73;;;8.73;;
8435;SDS011;4255;48.730;9.156;2022-07-23T14:24:55;9.17;;;8.20;;
8435;SDS011;4255;48.730;9.156;2022-07-23T14:27:23;7.70;;;7.13;;
8435;SDS011;4255;48.730;9.156;2022-07-23T14:29:49;8.37;;;7.67;;
8435;SDS011;4255;48.730;9.156;2022-07-23T14:32:15;8.67;;;7.90;;
8435;SDS011;4255;48.730;9.156;2022-07-23T14:34:41;8.90;;;8.10;;
8435;SDS011;4255;48.730;9.156;2022-07-23T14:37:06;8.53;;;7.93;;
8435;SDS011;4255;48.730;9.156;2022-07-23T14:39:32;8.30;;;7.60;;
8435;SDS011;4255;48.730;9.156;2022-07-23T14:41:58;8.47;;;7.77;;
8435;SDS011;4255;48.730;9.156;2022-07-23T14:44:23;8.23;;;7.40;;
8435;SDS011;4255;48.730;9.156;2022-07-23T14:46:49;8.00;;;7.20;;
8435;SDS011;4255;48.730;9.156;2022-07-23T14:49:15;8.50;;;7.80;;
8435;SDS011;4255;48.730;9.156;2022-07-23T14:51:40;8.17;;;7.57;;
8435;SDS011;4255;48.730;9.156;2022-07-23T14:54:07;8.33;;;7.63;;
8435;SDS011;4255;48.730;9.156;2022-07-23T14:56:33;8.17;;;7.37;;
8435;SDS011;4255;48.730;9.156;2022-07-23T14:59:01;8.10;;;7.37;;
8435;SDS011;4255;48.730;9.156;2022-07-23T15:01:27;8.47;;;7.77;;
8435;SDS011;4255;48.730;9.156;2022-07-23T15:03:53;10.93;;;7.93;;
8435;SDS011;4255;48.730;9.156;2022-07-23T15:06:19;9.00;;;8.10;;
8435;SDS011;4255;48.730;9.156;2022-07-23T15:08:44;8.20;;;7.40;;
8435;SDS011;4255;48.730;9.156;2022-07-23T15:11:10;8.07;;;7.30;;
8435;SDS011;4255;48.730;9.156;2022-07-23T15:13:36;9.40;;;8.47;;
8435;SDS011;4255;48.730;9.156;2022-07-23T15:16:03;9.63;;;7.90;;
8435;SDS011;4255;48.730;9.156;2022-07-23T15:18:29;8.60;;;7.80;;
8435;SDS011;4255;48.730;9.156;2022-07-23T15:20:55;9.47;;;8.13;;
8435;SDS011;4255;48.730;9.156;2022-07-23T15:23:21;8.03;;;7.33;;
8435;SDS011;4255;48.730;9.156;2022-07-23T15:25:47;7.67;;;7.00;;
8435;SDS011;4255;48.730;9.156;2022-07-23T15:28:12;7.87;;;7.17;;
8435;SDS011;4255;48.730;9.156;2022-07-23T15:30:38;8.10;;;7.30;;
8435;SDS011;4255;48.730;9.156;2022-07-23T15:33:04;8.20;;;7.50;;
8435;SDS011;4255;48.730;9.156;2022-07-23T15:35:30;8.43;;;7.57;;
8435;SDS011;4255;48.730;9.156;2022-07-23T15:37:56;8.80;;;7.10;;
8435;SDS011;4255;48.730;9.156;2022-07-23T15:40:22;8.13;;;7.40;;
8435;SDS011;4255;48.730;9.156;2022-07-23T15:42:47;8.33;;;7.50;;
8435;SDS011;4255;48.730;9.156;2022-07-23T15:45:13;8.10;;;7.43;;
8435;SDS011;4255;48.730;9.156;2022-07-23T15:47:39;7.60;;;7.10;;
8435;SDS011;4255;48.730;9.156;2022-07-23T15:50:06;7.90;;;7.20;;
8435;SDS011;4255;48.730;9.156;2022-07-23T15:52:32;8.10;;;7.43;;
8435;SDS011;4255;48.730;9.156;2022-07-23T15:54:57;8.60;;;7.67;;
8435;SDS011;4255;48.730;9.156;2022-07-23T15:57:23;8.30;;;6.80;;
8435;SDS011;4255;48.730;9.156;2022-07-23T15:59:49;9.03;;;8.33;;
8435;SDS011;4255;48.730;9.156;2022-07-23T16:02:14;8.37;;;7.67;;
8435;SDS011;4255;48.730;9.156;2022-07-23T16:04:41;8.70;;;7.83;;
8435;SDS011;4255;48.730;9.156;2022-07-23T16:07:07;9.17;;;8.20;;
8435;SDS011;4255;48.730;9.156;2022-07-23T16:09:32;9.70;;;8.07;;
8435;SDS011;4255;48.730;9.156;2022-07-23T16:11:59;8.60;;;7.93;;
8435;SDS011;4255;48.730;9.156;2022-07-23T16:14:25;8.97;;;8.27;;
8435;SDS011;4255;48.730;9.156;2022-07-23T16:16:51;9.13;;;8.33;;
8435;SDS011;4255;48.730;9.156;2022-07-23T16:19:16;8.50;;;7.70;;